Porum, Oklahoma
Current Conditions -  °F | °C
As of 11:35 AM on Friday 28 Nov 2014 (Local Time) from KGZL Reporting Station
Clear Clear  
Wind Chill: 59°   Ceiling: Unl
Heat Index: 59°   Visibility: 10mi
Dew Point: 27°   Wind: 18mph
Humidity: 29%   Direction: 210°SSW
Pressure: 30.11"   Gusts: 25mph
Location:  35.36°N, 95.27°W
Report Text: KGZL 281735Z AUTO 21016G22KT 10SM CLR 15/M03 A3011 RMK AO2
Loading
Personal Weather Stations






























Interactive Weather Map New forecast layout! Learn more

10-Day Weather Forecast

Advertisements
Track Severe Weather on mobile